sensor_id;sensor_type;location;lat;lon;timestamp;temperature;humidity
48579;DHT22;34357;51.948;6.132;2022-08-01T00:01:50;19.80;87.10
48579;DHT22;34357;51.948;6.132;2022-08-01T00:04:16;19.80;87.10
48579;DHT22;34357;51.948;6.132;2022-08-01T00:06:42;19.80;87.10
48579;DHT22;34357;51.948;6.132;2022-08-01T00:09:08;19.70;87.30
48579;DHT22;34357;51.948;6.132;2022-08-01T00:11:33;19.80;87.10
48579;DHT22;34357;51.948;6.132;2022-08-01T00:13:59;19.80;87.10
48579;DHT22;34357;51.948;6.132;2022-08-01T00:16:25;19.80;87.20
48579;DHT22;34357;51.948;6.132;2022-08-01T00:18:52;19.80;87.00
48579;DHT22;34357;51.948;6.132;2022-08-01T00:21:18;19.80;86.90
48579;DHT22;34357;51.948;6.132;2022-08-01T00:23:44;19.80;87.00
48579;DHT22;34357;51.948;6.132;2022-08-01T00:26:12;19.80;87.00
48579;DHT22;34357;51.948;6.132;2022-08-01T00:28:38;19.70;87.00
48579;DHT22;34357;51.948;6.132;2022-08-01T00:31:04;19.60;86.90
48579;DHT22;34357;51.948;6.132;2022-08-01T00:33:29;19.70;87.00
48579;DHT22;34357;51.948;6.132;2022-08-01T00:35:55;19.60;86.70
48579;DHT22;34357;51.948;6.132;2022-08-01T00:38:21;19.60;86.90
48579;DHT22;34357;51.948;6.132;2022-08-01T00:40:47;19.60;87.00
48579;DHT22;34357;51.948;6.132;2022-08-01T00:43:14;19.50;86.80
48579;DHT22;34357;51.948;6.132;2022-08-01T00:45:39;19.50;86.70
48579;DHT22;34357;51.948;6.132;2022-08-01T00:48:05;19.50;86.80
48579;DHT22;34357;51.948;6.132;2022-08-01T00:50:31;19.50;86.80
48579;DHT22;34357;51.948;6.132;2022-08-01T00:52:58;19.50;86.80
48579;DHT22;34357;51.948;6.132;2022-08-01T00:55:24;19.40;86.60
48579;DHT22;34357;51.948;6.132;2022-08-01T00:57:50;19.50;86.80
48579;DHT22;34357;51.948;6.132;2022-08-01T01:00:16;19.50;86.50
48579;DHT22;34357;51.948;6.132;2022-08-01T01:02:42;19.50;86.60
48579;DHT22;34357;51.948;6.132;2022-08-01T01:05:09;19.40;86.70
48579;DHT22;34357;51.948;6.132;2022-08-01T01:08:04;19.50;86.80
48579;DHT22;34357;51.948;6.132;2022-08-01T01:10:40;19.40;86.70
48579;DHT22;34357;51.948;6.132;2022-08-01T01:13:22;19.40;87.00
48579;DHT22;34357;51.948;6.132;2022-08-01T01:15:59;19.40;86.90
48579;DHT22;34357;51.948;6.132;2022-08-01T01:21:22;19.40;86.90
48579;DHT22;34357;51.948;6.132;2022-08-01T01:26:57;19.40;86.80
48579;DHT22;34357;51.948;6.132;2022-08-01T01:29:32;19.40;87.00
48579;DHT22;34357;51.948;6.132;2022-08-01T01:32:09;19.40;86.80
48579;DHT22;34357;51.948;6.132;2022-08-01T01:34:40;19.40;86.60
48579;DHT22;34357;51.948;6.132;2022-08-01T01:37:13;19.40;86.70
48579;DHT22;34357;51.948;6.132;2022-08-01T01:39:41;19.40;87.00
48579;DHT22;34357;51.948;6.132;2022-08-01T01:42:08;19.40;86.80
48579;DHT22;34357;51.948;6.132;2022-08-01T01:44:36;19.40;86.70
48579;DHT22;34357;51.948;6.132;2022-08-01T01:47:02;19.40;86.80
48579;DHT22;34357;51.948;6.132;2022-08-01T01:49:28;19.40;86.80
48579;DHT22;34357;51.948;6.132;2022-08-01T01:51:57;19.40;87.00
48579;DHT22;34357;51.948;6.132;2022-08-01T01:54:25;19.40;86.70
48579;DHT22;34357;51.948;6.132;2022-08-01T01:56:56;19.40;86.60
48579;DHT22;34357;51.948;6.132;2022-08-01T01:59:26;19.40;86.90
48579;DHT22;34357;51.948;6.132;2022-08-01T02:01:55;19.30;86.80
48579;DHT22;34357;51.948;6.132;2022-08-01T02:04:23;19.30;87.20
48579;DHT22;34357;51.948;6.132;2022-08-01T02:06:50;19.30;87.00
48579;DHT22;34357;51.948;6.132;2022-08-01T02:09:19;19.30;86.60
48579;DHT22;34357;51.948;6.132;2022-08-01T02:11:47;19.30;86.70
48579;DHT22;34357;51.948;6.132;2022-08-01T02:14:14;19.30;86.90
48579;DHT22;34357;51.948;6.132;2022-08-01T02:16:44;19.20;86.90
48579;DHT22;34357;51.948;6.132;2022-08-01T02:19:10;19.20;87.10
48579;DHT22;34357;51.948;6.132;2022-08-01T02:21:40;19.30;87.20
48579;DHT22;34357;51.948;6.132;2022-08-01T02:24:31;19.20;87.30
48579;DHT22;34357;51.948;6.132;2022-08-01T02:27:01;19.20;87.30
48579;DHT22;34357;51.948;6.132;2022-08-01T02:29:40;19.30;87.50
48579;DHT22;34357;51.948;6.132;2022-08-01T02:32:12;19.20;87.50
48579;DHT22;34357;51.948;6.132;2022-08-01T02:34:41;19.20;87.30
48579;DHT22;34357;51.948;6.132;2022-08-01T02:37:08;19.20;87.30
48579;DHT22;34357;51.948;6.132;2022-08-01T02:39:36;19.20;87.30
48579;DHT22;34357;51.948;6.132;2022-08-01T02:42:06;19.20;87.50
48579;DHT22;34357;51.948;6.132;2022-08-01T02:44:36;19.20;87.60
48579;DHT22;34357;51.948;6.132;2022-08-01T02:47:03;19.20;87.50
48579;DHT22;34357;51.948;6.132;2022-08-01T02:49:44;19.20;87.50
48579;DHT22;34357;51.948;6.132;2022-08-01T02:52:13;19.10;87.50
48579;DHT22;34357;51.948;6.132;2022-08-01T02:54:42;19.10;87.80
48579;DHT22;34357;51.948;6.132;2022-08-01T02:57:09;19.10;87.70
48579;DHT22;34357;51.948;6.132;2022-08-01T02:59:38;19.00;87.80
48579;DHT22;34357;51.948;6.132;2022-08-01T03:02:05;19.00;88.00
48579;DHT22;34357;51.948;6.132;2022-08-01T03:04:37;19.00;88.20
48579;DHT22;34357;51.948;6.132;2022-08-01T03:07:04;19.00;88.40
48579;DHT22;34357;51.948;6.132;2022-08-01T03:09:39;19.00;88.40
48579;DHT22;34357;51.948;6.132;2022-08-01T03:12:13;19.00;88.30
48579;DHT22;34357;51.948;6.132;2022-08-01T03:14:40;19.00;88.50
48579;DHT22;34357;51.948;6.132;2022-08-01T03:17:08;19.00;88.50
48579;DHT22;34357;51.948;6.132;2022-08-01T03:19:35;18.90;88.70
48579;DHT22;34357;51.948;6.132;2022-08-01T03:22:09;18.90;88.90
48579;DHT22;34357;51.948;6.132;2022-08-01T03:24:37;18.90;89.10
48579;DHT22;34357;51.948;6.132;2022-08-01T03:27:04;18.90;89.20
48579;DHT22;34357;51.948;6.132;2022-08-01T03:29:32;18.90;89.40
48579;DHT22;34357;51.948;6.132;2022-08-01T03:32:00;18.90;89.40
48579;DHT22;34357;51.948;6.132;2022-08-01T03:34:27;18.90;89.40
48579;DHT22;34357;51.948;6.132;2022-08-01T03:36:59;18.90;89.70
48579;DHT22;34357;51.948;6.132;2022-08-01T03:39:31;18.90;89.80
48579;DHT22;34357;51.948;6.132;2022-08-01T03:42:04;18.90;89.80
48579;DHT22;34357;51.948;6.132;2022-08-01T03:44:33;18.90;90.00
48579;DHT22;34357;51.948;6.132;2022-08-01T03:47:05;18.80;90.20
48579;DHT22;34357;51.948;6.132;2022-08-01T03:49:33;18.80;90.40
48579;DHT22;34357;51.948;6.132;2022-08-01T03:52:06;18.80;90.50
48579;DHT22;34357;51.948;6.132;2022-08-01T03:54:37;18.80;90.60
48579;DHT22;34357;51.948;6.132;2022-08-01T03:57:04;18.80;90.60
48579;DHT22;34357;51.948;6.132;2022-08-01T03:59:31;18.90;90.70
48579;DHT22;34357;51.948;6.132;2022-08-01T04:01:58;18.80;90.70
48579;DHT22;34357;51.948;6.132;2022-08-01T04:04:24;18.80;90.70
48579;DHT22;34357;51.948;6.132;2022-08-01T04:06:50;18.80;90.70
48579;DHT22;34357;51.948;6.132;2022-08-01T04:09:19;18.80;90.80
48579;DHT22;34357;51.948;6.132;2022-08-01T04:11:46;18.70;90.90
48579;DHT22;34357;51.948;6.132;2022-08-01T04:14:12;18.70;90.90
48579;DHT22;34357;51.948;6.132;2022-08-01T04:16:38;18.70;90.90
48579;DHT22;34357;51.948;6.132;2022-08-01T04:19:04;18.70;90.90
48579;DHT22;34357;51.948;6.132;2022-08-01T04:21:34;18.70;90.90
48579;DHT22;34357;51.948;6.132;2022-08-01T04:24:07;18.80;90.80
48579;DHT22;34357;51.948;6.132;2022-08-01T04:26:36;18.80;90.80
48579;DHT22;34357;51.948;6.132;2022-08-01T04:29:03;18.80;90.10
48579;DHT22;34357;51.948;6.132;2022-08-01T04:31:31;18.70;90.00
48579;DHT22;34357;51.948;6.132;2022-08-01T04:33:59;18.80;90.20
48579;DHT22;34357;51.948;6.132;2022-08-01T04:36:27;18.80;90.10
48579;DHT22;34357;51.948;6.132;2022-08-01T04:38:57;18.80;90.10
48579;DHT22;34357;51.948;6.132;2022-08-01T04:41:24;18.80;90.10
48579;DHT22;34357;51.948;6.132;2022-08-01T04:43:51;18.70;90.00
48579;DHT22;34357;51.948;6.132;2022-08-01T04:46:17;18.70;90.10
48579;DHT22;34357;51.948;6.132;2022-08-01T04:48:44;18.60;90.10
48579;DHT22;34357;51.948;6.132;2022-08-01T04:51:17;18.60;90.30
48579;DHT22;34357;51.948;6.132;2022-08-01T04:53:44;18.70;90.30
48579;DHT22;34357;51.948;6.132;2022-08-01T04:56:11;18.80;90.30
48579;DHT22;34357;51.948;6.132;2022-08-01T04:58:41;18.80;90.20
48579;DHT22;34357;51.948;6.132;2022-08-01T05:01:08;18.90;90.10
48579;DHT22;34357;51.948;6.132;2022-08-01T05:03:34;19.00;89.90
48579;DHT22;34357;51.948;6.132;2022-08-01T05:05:59;19.00;89.80
48579;DHT22;34357;51.948;6.132;2022-08-01T05:08:25;19.10;89.90
48579;DHT22;34357;51.948;6.132;2022-08-01T05:10:51;19.20;89.70
48579;DHT22;34357;51.948;6.132;2022-08-01T05:13:18;19.10;89.20
48579;DHT22;34357;51.948;6.132;2022-08-01T05:15:44;19.20;89.50
48579;DHT22;34357;51.948;6.132;2022-08-01T05:18:09;19.20;89.20
48579;DHT22;34357;51.948;6.132;2022-08-01T05:20:36;19.20;89.30
48579;DHT22;34357;51.948;6.132;2022-08-01T05:23:03;19.20;89.40
48579;DHT22;34357;51.948;6.132;2022-08-01T05:25:29;19.20;89.20
48579;DHT22;34357;51.948;6.132;2022-08-01T05:27:54;19.30;89.50
48579;DHT22;34357;51.948;6.132;2022-08-01T05:30:20;19.30;89.40
48579;DHT22;34357;51.948;6.132;2022-08-01T05:32:46;19.20;89.20
48579;DHT22;34357;51.948;6.132;2022-08-01T05:35:11;19.30;89.20
48579;DHT22;34357;51.948;6.132;2022-08-01T05:37:37;19.30;89.00
48579;DHT22;34357;51.948;6.132;2022-08-01T05:40:04;19.40;89.10
48579;DHT22;34357;51.948;6.132;2022-08-01T05:42:30;19.40;89.00
48579;DHT22;34357;51.948;6.132;2022-08-01T05:44:56;19.50;88.80
48579;DHT22;34357;51.948;6.132;2022-08-01T05:47:21;19.50;88.70
48579;DHT22;34357;51.948;6.132;2022-08-01T05:49:47;19.60;88.20
48579;DHT22;34357;51.948;6.132;2022-08-01T05:52:13;19.70;88.00
48579;DHT22;34357;51.948;6.132;2022-08-01T05:54:39;19.70;87.90
48579;DHT22;34357;51.948;6.132;2022-08-01T05:57:05;19.60;87.90
48579;DHT22;34357;51.948;6.132;2022-08-01T05:59:31;19.70;88.00
48579;DHT22;34357;51.948;6.132;2022-08-01T06:01:57;19.70;87.50
48579;DHT22;34357;51.948;6.132;2022-08-01T06:04:23;19.80;87.60
48579;DHT22;34357;51.948;6.132;2022-08-01T06:06:49;19.90;87.10
48579;DHT22;34357;51.948;6.132;2022-08-01T06:09:14;19.90;86.80
48579;DHT22;34357;51.948;6.132;2022-08-01T06:11:40;20.00;86.80
48579;DHT22;34357;51.948;6.132;2022-08-01T06:14:06;20.00;86.60
48579;DHT22;34357;51.948;6.132;2022-08-01T06:16:32;20.10;86.20
48579;DHT22;34357;51.948;6.132;2022-08-01T06:18:58;20.10;86.10
48579;DHT22;34357;51.948;6.132;2022-08-01T06:21:23;20.10;86.00
48579;DHT22;34357;51.948;6.132;2022-08-01T06:23:49;20.00;86.10
48579;DHT22;34357;51.948;6.132;2022-08-01T06:26:17;19.80;87.10
48579;DHT22;34357;51.948;6.132;2022-08-01T06:28:43;19.70;87.40
48579;DHT22;34357;51.948;6.132;2022-08-01T06:31:09;19.60;88.10
48579;DHT22;34357;51.948;6.132;2022-08-01T06:33:36;19.50;88.60
48579;DHT22;34357;51.948;6.132;2022-08-01T06:36:03;19.40;89.10
48579;DHT22;34357;51.948;6.132;2022-08-01T06:38:28;19.40;89.50
48579;DHT22;34357;51.948;6.132;2022-08-01T06:40:54;19.30;89.30
48579;DHT22;34357;51.948;6.132;2022-08-01T06:43:20;19.30;89.40
48579;DHT22;34357;51.948;6.132;2022-08-01T06:45:47;19.30;89.40
48579;DHT22;34357;51.948;6.132;2022-08-01T06:48:12;19.40;89.30
48579;DHT22;34357;51.948;6.132;2022-08-01T06:50:38;19.40;89.00
48579;DHT22;34357;51.948;6.132;2022-08-01T06:53:04;19.70;88.10
48579;DHT22;34357;51.948;6.132;2022-08-01T06:55:30;19.90;87.60
48579;DHT22;34357;51.948;6.132;2022-08-01T06:57:56;19.90;87.30
48579;DHT22;34357;51.948;6.132;2022-08-01T07:00:24;20.00;87.40
48579;DHT22;34357;51.948;6.132;2022-08-01T07:02:51;20.10;86.80
48579;DHT22;34357;51.948;6.132;2022-08-01T07:05:17;20.00;86.40
48579;DHT22;34357;51.948;6.132;2022-08-01T07:07:43;19.90;86.60
48579;DHT22;34357;51.948;6.132;2022-08-01T07:10:10;19.80;86.70
48579;DHT22;34357;51.948;6.132;2022-08-01T07:12:38;19.70;87.00
48579;DHT22;34357;51.948;6.132;2022-08-01T07:15:05;19.70;87.60
48579;DHT22;34357;51.948;6.132;2022-08-01T07:17:31;19.70;87.60
48579;DHT22;34357;51.948;6.132;2022-08-01T07:19:57;19.70;87.70
48579;DHT22;34357;51.948;6.132;2022-08-01T07:22:22;19.60;87.10
48579;DHT22;34357;51.948;6.132;2022-08-01T07:24:48;19.60;87.30
48579;DHT22;34357;51.948;6.132;2022-08-01T07:27:14;19.50;87.50
48579;DHT22;34357;51.948;6.132;2022-08-01T07:29:39;19.50;87.80
48579;DHT22;34357;51.948;6.132;2022-08-01T07:32:05;19.50;87.70
48579;DHT22;34357;51.948;6.132;2022-08-01T07:34:31;19.50;87.50
48579;DHT22;34357;51.948;6.132;2022-08-01T07:36:57;19.60;87.80
48579;DHT22;34357;51.948;6.132;2022-08-01T07:39:22;19.50;87.30
48579;DHT22;34357;51.948;6.132;2022-08-01T07:41:48;19.60;87.30
48579;DHT22;34357;51.948;6.132;2022-08-01T07:44:14;19.60;87.60
48579;DHT22;34357;51.948;6.132;2022-08-01T07:46:39;19.60;87.70
48579;DHT22;34357;51.948;6.132;2022-08-01T07:49:05;19.60;87.60
48579;DHT22;34357;51.948;6.132;2022-08-01T07:51:31;19.70;86.80
48579;DHT22;34357;51.948;6.132;2022-08-01T07:53:56;19.80;86.50
48579;DHT22;34357;51.948;6.132;2022-08-01T07:56:22;19.90;86.40
48579;DHT22;34357;51.948;6.132;2022-08-01T07:58:49;19.90;86.40
48579;DHT22;34357;51.948;6.132;2022-08-01T08:01:15;20.00;85.80
48579;DHT22;34357;51.948;6.132;2022-08-01T08:03:41;20.00;85.60
48579;DHT22;34357;51.948;6.132;2022-08-01T08:06:07;20.00;85.60
48579;DHT22;34357;51.948;6.132;2022-08-01T08:08:32;20.10;85.10
48579;DHT22;34357;51.948;6.132;2022-08-01T08:11:00;19.90;85.40
48579;DHT22;34357;51.948;6.132;2022-08-01T08:13:26;20.00;85.40
48579;DHT22;34357;51.948;6.132;2022-08-01T08:15:53;19.90;85.30
48579;DHT22;34357;51.948;6.132;2022-08-01T08:18:18;19.90;85.50
48579;DHT22;34357;51.948;6.132;2022-08-01T08:20:44;19.80;85.70
48579;DHT22;34357;51.948;6.132;2022-08-01T08:23:10;19.70;86.00
48579;DHT22;34357;51.948;6.132;2022-08-01T08:25:54;19.60;86.20
48579;DHT22;34357;51.948;6.132;2022-08-01T08:28:20;19.50;86.50
48579;DHT22;34357;51.948;6.132;2022-08-01T08:30:46;19.40;87.00
48579;DHT22;34357;51.948;6.132;2022-08-01T08:33:12;19.40;86.80
48579;DHT22;34357;51.948;6.132;2022-08-01T08:35:41;19.40;86.10
48579;DHT22;34357;51.948;6.132;2022-08-01T08:38:07;19.40;85.90
48579;DHT22;34357;51.948;6.132;2022-08-01T08:40:35;19.50;85.80
48579;DHT22;34357;51.948;6.132;2022-08-01T08:43:04;19.70;86.20
48579;DHT22;34357;51.948;6.132;2022-08-01T08:45:31;19.90;85.90
48579;DHT22;34357;51.948;6.132;2022-08-01T08:47:58;20.10;84.80
48579;DHT22;34357;51.948;6.132;2022-08-01T08:50:25;20.40;84.10
48579;DHT22;34357;51.948;6.132;2022-08-01T08:52:52;20.50;83.50
48579;DHT22;34357;51.948;6.132;2022-08-01T08:55:23;20.70;82.20
48579;DHT22;34357;51.948;6.132;2022-08-01T08:57:50;20.90;81.70
48579;DHT22;34357;51.948;6.132;2022-08-01T09:00:17;21.10;81.30
48579;DHT22;34357;51.948;6.132;2022-08-01T09:02:44;21.20;82.30
48579;DHT22;34357;51.948;6.132;2022-08-01T09:05:10;21.10;81.10
48579;DHT22;34357;51.948;6.132;2022-08-01T09:07:36;21.10;80.60
48579;DHT22;34357;51.948;6.132;2022-08-01T09:10:03;21.20;81.00
48579;DHT22;34357;51.948;6.132;2022-08-01T09:12:28;21.20;80.40
48579;DHT22;34357;51.948;6.132;2022-08-01T09:14:54;21.20;82.00
48579;DHT22;34357;51.948;6.132;2022-08-01T09:17:20;21.10;80.40
48579;DHT22;34357;51.948;6.132;2022-08-01T09:19:52;21.00;80.90
48579;DHT22;34357;51.948;6.132;2022-08-01T09:22:20;20.90;81.70
48579;DHT22;34357;51.948;6.132;2022-08-01T09:25:05;20.70;81.90
48579;DHT22;34357;51.948;6.132;2022-08-01T09:27:32;20.50;83.00
48579;DHT22;34357;51.948;6.132;2022-08-01T09:30:16;20.40;84.30
48579;DHT22;34357;51.948;6.132;2022-08-01T09:32:59;20.50;84.30
48579;DHT22;34357;51.948;6.132;2022-08-01T09:35:35;20.40;84.80
48579;DHT22;34357;51.948;6.132;2022-08-01T09:38:14;20.50;83.80
48579;DHT22;34357;51.948;6.132;2022-08-01T09:40:45;20.50;83.10
48579;DHT22;34357;51.948;6.132;2022-08-01T09:43:11;20.60;83.20
48579;DHT22;34357;51.948;6.132;2022-08-01T09:45:37;20.70;83.10
48579;DHT22;34357;51.948;6.132;2022-08-01T09:48:07;20.90;83.30
48579;DHT22;34357;51.948;6.132;2022-08-01T09:50:41;21.00;82.70
48579;DHT22;34357;51.948;6.132;2022-08-01T09:53:08;20.90;81.10
48579;DHT22;34357;51.948;6.132;2022-08-01T09:55:34;21.00;81.80
48579;DHT22;34357;51.948;6.132;2022-08-01T09:58:00;21.00;80.70
48579;DHT22;34357;51.948;6.132;2022-08-01T10:00:26;20.90;81.30
48579;DHT22;34357;51.948;6.132;2022-08-01T10:02:52;20.90;82.00
48579;DHT22;34357;51.948;6.132;2022-08-01T10:05:33;20.90;82.90
48579;DHT22;34357;51.948;6.132;2022-08-01T10:08:03;20.80;82.80
48579;DHT22;34357;51.948;6.132;2022-08-01T10:10:30;20.60;82.90
48579;DHT22;34357;51.948;6.132;2022-08-01T10:12:58;20.50;82.90
48579;DHT22;34357;51.948;6.132;2022-08-01T10:15:25;20.40;83.80
48579;DHT22;34357;51.948;6.132;2022-08-01T10:17:56;20.40;83.50
48579;DHT22;34357;51.948;6.132;2022-08-01T10:20:25;20.30;84.30
48579;DHT22;34357;51.948;6.132;2022-08-01T10:22:55;20.30;83.90
48579;DHT22;34357;51.948;6.132;2022-08-01T10:25:23;20.40;84.50
48579;DHT22;34357;51.948;6.132;2022-08-01T10:27:52;20.60;83.80
48579;DHT22;34357;51.948;6.132;2022-08-01T10:30:20;20.70;83.10
48579;DHT22;34357;51.948;6.132;2022-08-01T10:32:47;20.90;83.20
48579;DHT22;34357;51.948;6.132;2022-08-01T10:35:13;20.90;82.90
48579;DHT22;34357;51.948;6.132;2022-08-01T10:37:44;21.10;82.30
48579;DHT22;34357;51.948;6.132;2022-08-01T10:40:14;21.10;81.60
48579;DHT22;34357;51.948;6.132;2022-08-01T10:42:45;21.10;82.40
48579;DHT22;34357;51.948;6.132;2022-08-01T10:45:14;21.10;81.50
48579;DHT22;34357;51.948;6.132;2022-08-01T10:48:10;21.10;82.40
48579;DHT22;34357;51.948;6.132;2022-08-01T10:50:49;21.10;81.10
48579;DHT22;34357;51.948;6.132;2022-08-01T10:53:17;21.00;79.40
48579;DHT22;34357;51.948;6.132;2022-08-01T10:58:26;21.10;79.80
48579;DHT22;34357;51.948;6.132;2022-08-01T11:03:39;21.50;78.20
48579;DHT22;34357;51.948;6.132;2022-08-01T11:06:06;21.50;77.80
48579;DHT22;34357;51.948;6.132;2022-08-01T11:08:36;21.60;77.10
48579;DHT22;34357;51.948;6.132;2022-08-01T11:11:03;21.60;76.80
48579;DHT22;34357;51.948;6.132;2022-08-01T11:14:04;21.70;76.20
48579;DHT22;34357;51.948;6.132;2022-08-01T11:16:36;21.90;77.00
48579;DHT22;34357;51.948;6.132;2022-08-01T11:19:05;22.00;76.90
48579;DHT22;34357;51.948;6.132;2022-08-01T11:27:20;22.00;76.30
48579;DHT22;34357;51.948;6.132;2022-08-01T11:32:55;21.70;76.10
48579;DHT22;34357;51.948;6.132;2022-08-01T11:35:23;21.80;75.90
48579;DHT22;34357;51.948;6.132;2022-08-01T11:37:52;21.80;76.20
48579;DHT22;34357;51.948;6.132;2022-08-01T11:40:21;21.70;75.30
48579;DHT22;34357;51.948;6.132;2022-08-01T11:42:49;21.60;76.80
48579;DHT22;34357;51.948;6.132;2022-08-01T11:45:15;21.50;76.60
48579;DHT22;34357;51.948;6.132;2022-08-01T11:47:50;21.50;76.50
48579;DHT22;34357;51.948;6.132;2022-08-01T11:50:29;21.60;76.10
48579;DHT22;34357;51.948;6.132;2022-08-01T11:53:03;21.60;76.30
48579;DHT22;34357;51.948;6.132;2022-08-01T11:55:29;21.80;77.00
48579;DHT22;34357;51.948;6.132;2022-08-01T11:58:04;21.90;74.50
48579;DHT22;34357;51.948;6.132;2022-08-01T12:00:29;22.00;74.70
48579;DHT22;34357;51.948;6.132;2022-08-01T12:03:03;22.10;74.40
48579;DHT22;34357;51.948;6.132;2022-08-01T12:05:31;22.40;73.20
48579;DHT22;34357;51.948;6.132;2022-08-01T12:07:59;22.50;73.20
48579;DHT22;34357;51.948;6.132;2022-08-01T12:10:27;22.70;73.30
48579;DHT22;34357;51.948;6.132;2022-08-01T12:12:56;22.90;70.30
48579;DHT22;34357;51.948;6.132;2022-08-01T12:15:24;22.90;70.20
48579;DHT22;34357;51.948;6.132;2022-08-01T12:18:02;22.90;70.30
48579;DHT22;34357;51.948;6.132;2022-08-01T12:20:33;22.90;70.40
48579;DHT22;34357;51.948;6.132;2022-08-01T12:23:05;22.80;69.70
48579;DHT22;34357;51.948;6.132;2022-08-01T12:25:34;22.70;68.50
48579;DHT22;34357;51.948;6.132;2022-08-01T12:28:02;22.80;67.20
48579;DHT22;34357;51.948;6.132;2022-08-01T12:30:29;22.70;67.20
48579;DHT22;34357;51.948;6.132;2022-08-01T12:32:57;22.70;66.20
48579;DHT22;34357;51.948;6.132;2022-08-01T12:35:27;22.60;66.20
48579;DHT22;34357;51.948;6.132;2022-08-01T12:37:58;22.70;66.10
48579;DHT22;34357;51.948;6.132;2022-08-01T12:40:32;22.60;65.60
48579;DHT22;34357;51.948;6.132;2022-08-01T12:43:07;22.80;68.10
48579;DHT22;34357;51.948;6.132;2022-08-01T12:45:34;22.90;67.00
48579;DHT22;34357;51.948;6.132;2022-08-01T12:48:01;23.30;65.50
48579;DHT22;34357;51.948;6.132;2022-08-01T12:50:29;23.80;62.70
48579;DHT22;34357;51.948;6.132;2022-08-01T12:52:56;24.00;62.10
48579;DHT22;34357;51.948;6.132;2022-08-01T12:55:24;24.10;61.20
48579;DHT22;34357;51.948;6.132;2022-08-01T12:58:04;24.10;63.10
48579;DHT22;34357;51.948;6.132;2022-08-01T13:00:30;24.30;62.20
48579;DHT22;34357;51.948;6.132;2022-08-01T13:03:05;24.30;60.90
48579;DHT22;34357;51.948;6.132;2022-08-01T13:05:48;24.10;59.80
48579;DHT22;34357;51.948;6.132;2022-08-01T13:08:19;23.90;60.70
48579;DHT22;34357;51.948;6.132;2022-08-01T13:10:46;23.90;60.60
48579;DHT22;34357;51.948;6.132;2022-08-01T13:13:13;23.80;60.00
48579;DHT22;34357;51.948;6.132;2022-08-01T13:15:41;23.80;60.40
48579;DHT22;34357;51.948;6.132;2022-08-01T13:18:29;24.00;59.10
48579;DHT22;34357;51.948;6.132;2022-08-01T13:21:17;23.80;57.70
48579;DHT22;34357;51.948;6.132;2022-08-01T13:24:10;23.90;60.30
48579;DHT22;34357;51.948;6.132;2022-08-01T13:26:54;23.90;58.80
48579;DHT22;34357;51.948;6.132;2022-08-01T13:29:39;24.10;58.70
48579;DHT22;34357;51.948;6.132;2022-08-01T13:32:20;24.10;59.50
48579;DHT22;34357;51.948;6.132;2022-08-01T13:34:46;24.10;59.90
48579;DHT22;34357;51.948;6.132;2022-08-01T13:37:11;24.00;58.90
48579;DHT22;34357;51.948;6.132;2022-08-01T13:39:37;24.30;57.20
48579;DHT22;34357;51.948;6.132;2022-08-01T13:42:18;24.30;55.70
48579;DHT22;34357;51.948;6.132;2022-08-01T13:44:44;24.50;58.10
48579;DHT22;34357;51.948;6.132;2022-08-01T13:47:11;25.00;56.20
48579;DHT22;34357;51.948;6.132;2022-08-01T13:49:37;25.50;54.30
48579;DHT22;34357;51.948;6.132;2022-08-01T13:52:03;25.60;51.50
48579;DHT22;34357;51.948;6.132;2022-08-01T13:54:31;25.50;55.10
48579;DHT22;34357;51.948;6.132;2022-08-01T13:56:57;25.30;52.40
48579;DHT22;34357;51.948;6.132;2022-08-01T13:59:23;25.20;53.00
48579;DHT22;34357;51.948;6.132;2022-08-01T14:01:48;24.90;53.50
48579;DHT22;34357;51.948;6.132;2022-08-01T14:04:14;24.40;53.60
48579;DHT22;34357;51.948;6.132;2022-08-01T14:06:40;24.20;53.70
48579;DHT22;34357;51.948;6.132;2022-08-01T14:09:06;23.80;54.90
48579;DHT22;34357;51.948;6.132;2022-08-01T14:11:32;24.10;55.30
48579;DHT22;34357;51.948;6.132;2022-08-01T14:13:58;24.10;55.80
48579;DHT22;34357;51.948;6.132;2022-08-01T14:16:24;23.90;54.60
48579;DHT22;34357;51.948;6.132;2022-08-01T14:18:49;24.00;55.20
48579;DHT22;34357;51.948;6.132;2022-08-01T14:21:16;24.30;56.20
48579;DHT22;34357;51.948;6.132;2022-08-01T14:23:41;24.30;53.90
48579;DHT22;34357;51.948;6.132;2022-08-01T14:26:10;24.20;54.20
48579;DHT22;34357;51.948;6.132;2022-08-01T14:28:37;24.40;53.70
48579;DHT22;34357;51.948;6.132;2022-08-01T14:31:03;24.40;53.60
48579;DHT22;34357;51.948;6.132;2022-08-01T14:33:29;24.30;53.40
48579;DHT22;34357;51.948;6.132;2022-08-01T14:35:56;24.20;53.40
48579;DHT22;34357;51.948;6.132;2022-08-01T14:38:21;24.30;54.80
48579;DHT22;34357;51.948;6.132;2022-08-01T14:40:47;24.60;52.60
48579;DHT22;34357;51.948;6.132;2022-08-01T14:43:20;24.60;53.20
48579;DHT22;34357;51.948;6.132;2022-08-01T14:45:46;24.70;52.60
48579;DHT22;34357;51.948;6.132;2022-08-01T14:48:16;24.80;52.00
48579;DHT22;34357;51.948;6.132;2022-08-01T14:50:42;25.00;51.90
48579;DHT22;34357;51.948;6.132;2022-08-01T14:53:07;25.10;51.80
48579;DHT22;34357;51.948;6.132;2022-08-01T14:55:33;25.10;51.60
48579;DHT22;34357;51.948;6.132;2022-08-01T14:57:59;24.70;51.90
48579;DHT22;34357;51.948;6.132;2022-08-01T15:00:24;24.50;52.60
48579;DHT22;34357;51.948;6.132;2022-08-01T15:02:50;24.40;52.90
48579;DHT22;34357;51.948;6.132;2022-08-01T15:05:16;24.30;53.00
48579;DHT22;34357;51.948;6.132;2022-08-01T15:07:41;24.20;53.20
48579;DHT22;34357;51.948;6.132;2022-08-01T15:10:07;24.20;53.50
48579;DHT22;34357;51.948;6.132;2022-08-01T15:12:34;24.00;53.40
48579;DHT22;34357;51.948;6.132;2022-08-01T15:15:00;24.10;54.70
48579;DHT22;34357;51.948;6.132;2022-08-01T15:17:31;24.40;55.50
48579;DHT22;34357;51.948;6.132;2022-08-01T15:20:02;24.30;55.40
48579;DHT22;34357;51.948;6.132;2022-08-01T15:22:28;24.30;54.60
48579;DHT22;34357;51.948;6.132;2022-08-01T15:24:56;24.20;54.90
48579;DHT22;34357;51.948;6.132;2022-08-01T15:27:22;24.30;53.70
48579;DHT22;34357;51.948;6.132;2022-08-01T15:29:48;24.30;53.80
48579;DHT22;34357;51.948;6.132;2022-08-01T15:32:16;24.40;53.00
48579;DHT22;34357;51.948;6.132;2022-08-01T15:34:47;24.80;51.70
48579;DHT22;34357;51.948;6.132;2022-08-01T15:37:13;25.00;49.90
48579;DHT22;34357;51.948;6.132;2022-08-01T15:39:40;25.00;50.80
48579;DHT22;34357;51.948;6.132;2022-08-01T15:42:10;25.20;48.60
48579;DHT22;34357;51.948;6.132;2022-08-01T15:44:36;25.40;48.30
48579;DHT22;34357;51.948;6.132;2022-08-01T15:47:02;25.50;47.60
48579;DHT22;34357;51.948;6.132;2022-08-01T15:49:28;25.50;48.70
48579;DHT22;34357;51.948;6.132;2022-08-01T15:51:54;25.50;47.50
48579;DHT22;34357;51.948;6.132;2022-08-01T15:54:19;25.40;47.60
48579;DHT22;34357;51.948;6.132;2022-08-01T15:56:45;25.70;48.60
48579;DHT22;34357;51.948;6.132;2022-08-01T15:59:12;25.90;47.80